createdAt,value
2022-09-13T00:09:08.106Z,12.00
2022-09-13T00:19:36.186Z,12.10
2022-09-13T00:40:31.386Z,8.00
2022-09-13T00:50:59.498Z,9.50
2022-09-13T01:12:04.645Z,15.70
2022-09-13T01:22:52.849Z,14.20
2022-09-13T01:33:40.857Z,10.60
2022-09-13T01:44:17.882Z,12.50
2022-09-13T01:54:55.498Z,11.00
2022-09-13T02:15:58.361Z,15.00
2022-09-13T02:26:29.528Z,17.80
2022-09-13T02:36:59.584Z,19.20
2022-09-13T02:47:42.022Z,14.80
2022-09-13T02:58:15.230Z,12.20
2022-09-13T03:08:43.189Z,12.40
2022-09-13T03:19:27.244Z,12.60
2022-09-13T03:30:03.040Z,12.10
2022-09-13T03:40:41.318Z,12.00
2022-09-13T03:51:10.180Z,13.40
2022-09-13T04:01:38.130Z,12.20
2022-09-13T04:12:06.980Z,11.30
2022-09-13T04:22:34.923Z,11.70
2022-09-13T04:33:02.787Z,14.10
2022-09-13T04:43:30.735Z,12.60
2022-09-13T04:53:59.002Z,10.50
2022-09-13T05:14:53.529Z,11.50
2022-09-13T05:25:25.841Z,11.10
2022-09-13T05:35:54.678Z,9.20
2022-09-13T05:46:23.397Z,9.90
2022-09-13T05:56:52.685Z,8.90
2022-09-13T06:07:20.670Z,7.40
2022-09-13T06:17:48.859Z,10.70
2022-09-13T06:28:16.930Z,10.60
2022-09-13T06:38:45.667Z,13.20
2022-09-13T06:49:13.843Z,11.50
2022-09-13T06:59:41.846Z,11.80
2022-09-13T07:10:11.427Z,12.00
2022-09-13T07:20:39.386Z,10.40
2022-09-13T07:31:12.992Z,10.90
2022-09-13T07:41:41.442Z,10.60
2022-09-13T07:52:09.471Z,8.70
2022-09-13T08:02:37.614Z,7.30
2022-09-13T08:13:05.685Z,8.80
2022-09-13T08:23:34.307Z,7.50
2022-09-13T08:34:02.609Z,8.10
2022-09-13T08:44:34.723Z,6.40
2022-09-13T08:55:07.643Z,10.90
2022-09-13T09:05:47.988Z,7.40
2022-09-13T09:16:29.876Z,4.60
2022-09-13T09:26:59.016Z,7.10
2022-09-13T09:37:29.526Z,6.50
2022-09-13T09:48:01.797Z,6.40
2022-09-13T09:58:42.123Z,5.90
2022-09-13T10:09:19.785Z,4.90
2022-09-13T10:19:57.920Z,4.80
2022-09-13T10:30:36.186Z,6.00
2022-09-13T10:41:07.402Z,5.40
2022-09-13T10:51:39.852Z,5.20
2022-09-13T11:02:39.895Z,6.00
2022-09-13T11:13:17.563Z,5.00
2022-09-13T11:24:21.057Z,3.00
2022-09-13T11:35:02.601Z,4.90
2022-09-13T11:45:32.075Z,6.40
2022-09-13T11:56:03.617Z,3.60
2022-09-13T12:06:35.912Z,5.00
2022-09-13T12:17:13.296Z,4.60
2022-09-13T12:27:44.688Z,4.10
2022-09-13T12:38:31.446Z,6.50
2022-09-13T12:49:24.771Z,6.70
2022-09-13T13:00:20.192Z,5.50
2022-09-13T13:11:01.490Z,5.10
2022-09-13T13:21:36.116Z,5.20
2022-09-13T13:32:15.033Z,5.90
2022-09-13T13:42:45.386Z,6.60
2022-09-13T13:53:35.463Z,4.20
2022-09-13T14:04:27.503Z,5.10
2022-09-13T14:15:10.158Z,5.00
2022-09-13T14:25:38.479Z,4.80
2022-09-13T14:36:17.150Z,4.80
2022-09-13T14:46:48.666Z,6.30
2022-09-13T14:57:25.437Z,3.80
2022-09-13T15:07:53.897Z,3.80
2022-09-13T15:18:35.777Z,4.70
2022-09-13T15:29:05.829Z,4.80
2022-09-13T15:39:45.820Z,3.30
2022-09-13T15:50:22.780Z,4.40
2022-09-13T16:00:50.783Z,4.30
2022-09-13T16:11:18.853Z,3.80
2022-09-13T16:21:47.058Z,4.80
2022-09-13T16:32:15.952Z,5.90
2022-09-13T16:42:43.973Z,7.00
2022-09-13T16:53:12.253Z,5.20
2022-09-13T17:03:41.683Z,8.50
2022-09-13T17:14:11.459Z,8.90
2022-09-13T17:24:41.170Z,7.70
2022-09-13T17:35:12.750Z,6.20
2022-09-13T17:45:41.670Z,5.20
2022-09-13T17:56:11.254Z,5.50
2022-09-13T18:06:41.423Z,6.20
2022-09-13T18:17:13.901Z,5.90
2022-09-13T18:27:43.506Z,7.60
2022-09-13T18:38:13.384Z,6.80
2022-09-13T18:48:45.447Z,6.10
2022-09-13T18:59:15.619Z,6.20
2022-09-13T19:09:49.777Z,6.50
2022-09-13T19:20:25.376Z,7.60
2022-09-13T19:30:54.193Z,5.10
2022-09-13T19:41:24.988Z,5.50
2022-09-13T19:51:54.182Z,4.90
2022-09-13T20:02:23.631Z,6.70
2022-09-13T20:12:54.584Z,6.90
2022-09-13T20:23:24.428Z,8.80
2022-09-13T20:33:59.257Z,8.20
2022-09-13T20:44:28.811Z,7.30
2022-09-13T20:54:56.903Z,8.60
2022-09-13T21:05:24.814Z,8.20
2022-09-13T21:15:52.814Z,7.50
2022-09-13T21:26:23.029Z,6.60
2022-09-13T21:36:51.406Z,6.50
2022-09-13T21:47:19.355Z,8.20
2022-09-13T21:57:47.346Z,7.10
2022-09-13T22:08:15.241Z,8.10
2022-09-13T22:18:43.570Z,7.80
2022-09-13T22:29:12.017Z,8.00
2022-09-13T22:39:40.162Z,7.50
2022-09-13T22:50:09.208Z,10.70
2022-09-13T23:00:37.233Z,8.80
2022-09-13T23:11:14.094Z,8.00
2022-09-13T23:21:42.401Z,7.50
2022-09-13T23:32:10.680Z,10.50
2022-09-13T23:42:38.629Z,8.80
2022-09-13T23:53:06.817Z,9.30
